Time;durP1;ratioP1;P1;durP2;ratioP2;P2;SDS_P1;SDS_P2;PMS_P1;PMS_P2;Temp;Humidity;BMP_temperature;BMP_pressure;BME280_temperature;BME280_humidity;BME280_pressure;Samples;Min_cycle;Max_cycle;Signal;HPM_P1;HPM_P2
2023/09/16 00:02:20;;;;;;;6.15;3.40;;;;;;;20.36;61.75;99779.19;4928396;28;20046;-85
2023/09/16 00:04:48;;;;;;;4.65;3.05;;;;;;;20.36;61.70;99781.06;4973930;28;20454;-85
2023/09/16 00:07:15;;;;;;;4.40;3.70;;;;;;;20.42;61.76;99782.94;4943913;28;20453;-85
2023/09/16 00:09:42;;;;;;;4.57;3.28;;;;;;;20.40;61.70;99771.53;4969523;28;20716;-85
2023/09/16 00:12:09;;;;;;;3.45;3.15;;;;;;;20.44;62.10;99774.66;4917610;28;20047;-85
2023/09/16 00:14:36;;;;;;;5.47;3.58;;;;;;;20.42;62.50;99772.16;4932640;28;20090;-84
2023/09/16 00:17:04;;;;;;;3.10;2.80;;;;;;;20.42;62.13;99774.84;4940617;28;20055;-85
2023/09/16 00:19:31;;;;;;;4.25;3.55;;;;;;;20.39;62.42;99769.88;4947639;28;20050;-85
2023/09/16 00:21:58;;;;;;;4.20;3.30;;;;;;;20.38;62.62;99776.31;4947481;28;20055;-85
2023/09/16 00:24:25;;;;;;;5.43;3.58;;;;;;;20.35;62.34;99774.84;4957017;28;20054;-85
2023/09/16 00:26:53;;;;;;;6.32;3.40;;;;;;;20.35;62.18;99777.53;4957113;28;20043;-85
2023/09/16 00:29:20;;;;;;;3.65;3.22;;;;;;;20.35;62.17;99777.53;4949871;28;20047;-85
2023/09/16 00:31:47;;;;;;;8.20;3.30;;;;;;;20.35;61.55;99771.28;4915681;28;20062;-85
2023/09/16 00:34:15;;;;;;;3.97;3.45;;;;;;;20.34;61.78;99775.84;4962517;28;20395;-85
2023/09/16 00:36:41;;;;;;;4.68;3.53;;;;;;;20.37;61.72;99771.94;4945142;28;20051;-85
2023/09/16 00:39:09;;;;;;;7.57;3.67;;;;;;;20.37;61.72;99777.31;4959098;28;20062;-85
2023/09/16 00:41:36;;;;;;;5.05;3.20;;;;;;;20.38;61.55;99773.63;4948174;28;20046;-85
2023/09/16 00:44:03;;;;;;;4.30;3.78;;;;;;;20.36;62.13;99765.72;4948196;28;20050;-85
2023/09/16 00:46:30;;;;;;;4.65;3.65;;;;;;;20.35;62.12;99768.59;4947010;28;20062;-85
2023/09/16 00:48:57;;;;;;;3.63;3.22;;;;;;;20.35;61.88;99774.00;4944790;28;20164;-85
2023/09/16 00:51:24;;;;;;;4.03;3.45;;;;;;;20.36;61.83;99764.88;4949431;28;20093;-85
2023/09/16 00:53:51;;;;;;;6.00;3.83;;;;;;;20.36;61.64;99765.72;4926646;28;20513;-85
2023/09/16 00:56:18;;;;;;;3.92;3.28;;;;;;;20.35;61.61;99768.59;4930724;28;20109;-85
2023/09/16 00:58:45;;;;;;;4.32;3.60;;;;;;;20.31;61.68;99759.25;4946216;28;20113;-85
2023/09/16 01:01:13;;;;;;;4.03;3.50;;;;;;;20.30;61.49;99769.22;4944614;28;20054;-85
2023/09/16 01:03:41;;;;;;;4.35;2.85;;;;;;;20.27;61.43;99764.22;4941215;28;20102;-85
2023/09/16 01:06:10;;;;;;;6.40;3.28;;;;;;;20.25;61.58;99766.28;4953488;28;20102;-85
2023/09/16 01:08:37;;;;;;;5.30;3.55;;;;;;;20.22;61.54;99761.28;4913384;28;20188;-85
2023/09/16 01:11:05;;;;;;;9.38;3.67;;;;;;;20.25;61.80;99763.59;4952636;28;20051;-85
2023/09/16 01:13:33;;;;;;;5.80;3.53;;;;;;;20.23;61.80;99757.56;4946111;28;20062;-85
2023/09/16 01:16:31;;;;;;;4.88;3.72;;;;;;;20.14;61.46;99756.88;4959796;28;20051;-85
2023/09/16 01:19:04;;;;;;;5.57;3.22;;;;;;;20.19;61.44;99767.09;4975048;28;20494;-85
2023/09/16 01:21:31;;;;;;;4.20;3.10;;;;;;;20.17;62.00;99763.75;4950432;28;20043;-85
2023/09/16 01:24:20;;;;;;;4.30;3.78;;;;;;;20.08;62.11;99768.47;4973818;28;20699;-85
2023/09/16 01:26:47;;;;;;;4.50;3.55;;;;;;;20.15;62.23;99771.22;4944273;28;20047;-85
2023/09/16 01:29:15;;;;;;;6.07;3.33;;;;;;;20.17;62.12;99774.53;4947456;28;20050;-84
2023/09/16 01:31:44;;;;;;;3.85;3.33;;;;;;;20.16;62.30;99768.31;4950038;28;20074;-84
2023/09/16 01:34:29;;;;;;;3.85;3.10;;;;;;;20.07;62.50;99769.50;4961312;28;20511;-84
2023/09/16 01:36:58;;;;;;;3.83;3.08;;;;;;;20.13;61.97;99768.72;4950282;28;20107;-84
2023/09/16 01:39:29;;;;;;;3.90;3.10;;;;;;;20.12;62.45;99768.91;4934488;28;20043;-84
2023/09/16 01:41:58;;;;;;;4.25;3.53;;;;;;;20.11;62.46;99764.56;4968881;28;20051;-84
2023/09/16 01:44:25;;;;;;;4.93;3.30;;;;;;;20.09;62.46;99770.13;4948488;28;20478;-85
2023/09/16 01:46:55;;;;;;;4.35;3.65;;;;;;;20.06;62.66;99769.72;4936277;28;20035;-85
2023/09/16 01:49:22;;;;;;;4.95;3.55;;;;;;;20.06;62.49;99773.25;4959409;28;20223;-85
2023/09/16 01:51:49;;;;;;;4.63;3.65;;;;;;;20.04;62.51;99766.38;4914871;28;20130;-85
2023/09/16 01:54:16;;;;;;;7.18;3.42;;;;;;;20.03;62.67;99770.94;4937592;28;20142;-85
2023/09/16 01:56:44;;;;;;;4.15;3.17;;;;;;;20.03;62.23;99776.34;4934573;28;20117;-85
2023/09/16 01:59:11;;;;;;;4.88;3.35;;;;;;;19.98;62.63;99773.41;4933699;28;20087;-85
2023/09/16 02:01:38;;;;;;;3.78;3.38;;;;;;;19.96;63.02;99767.38;4933720;28;20055;-85
2023/09/16 02:04:06;;;;;;;4.45;3.47;;;;;;;19.92;62.92;99769.66;4964312;28;20039;-85
2023/09/16 02:06:33;;;;;;;3.90;3.40;;;;;;;19.91;63.23;99773.34;4946879;28;20121;-84
2023/09/16 02:09:02;;;;;;;4.97;3.72;;;;;;;19.88;63.15;99768.38;4939532;28;20058;-85
2023/09/16 02:11:30;;;;;;;4.13;3.38;;;;;;;19.84;63.33;99767.09;4964059;28;20043;-85
2023/09/16 02:13:58;;;;;;;4.25;3.42;;;;;;;19.79;63.41;99774.94;4930311;28;20043;-85
2023/09/16 02:16:25;;;;;;;4.15;3.65;;;;;;;19.80;63.81;99765.00;4915402;28;20059;-85
2023/09/16 02:18:52;;;;;;;5.30;3.28;;;;;;;19.81;63.36;99766.66;4950447;28;20505;-84
2023/09/16 02:21:19;;;;;;;4.63;3.63;;;;;;;19.74;63.68;99774.69;4933123;28;20042;-85
2023/09/16 02:23:45;;;;;;;3.47;3.17;;;;;;;19.71;63.96;99784.00;4949646;28;20561;-85
2023/09/16 02:26:12;;;;;;;4.65;3.72;;;;;;;19.70;64.50;99781.50;4946987;28;20039;-84
2023/09/16 02:28:40;;;;;;;5.57;3.53;;;;;;;19.69;64.64;99790.59;4956418;28;20059;-84
2023/09/16 02:31:09;;;;;;;7.95;3.60;;;;;;;19.65;64.51;99784.75;4936600;28;20216;-84
2023/09/16 02:33:36;;;;;;;3.80;3.40;;;;;;;19.62;64.49;99785.16;4934082;28;20058;-85
2023/09/16 02:36:04;;;;;;;3.95;3.40;;;;;;;19.62;64.64;99782.47;4915365;28;20474;-84
2023/09/16 02:38:31;;;;;;;4.15;3.03;;;;;;;19.60;64.66;99783.69;4939223;28;20062;-85
2023/09/16 02:40:58;;;;;;;5.70;3.40;;;;;;;19.57;64.32;99782.22;4946406;28;20059;-85
2023/09/16 02:43:25;;;;;;;3.85;3.08;;;;;;;19.52;64.52;99773.88;4965388;28;20137;-85
2023/09/16 02:45:55;;;;;;;4.32;3.45;;;;;;;19.52;64.28;99777.41;4951033;28;20127;-84
2023/09/16 02:48:23;;;;;;;3.72;3.20;;;;;;;19.50;64.63;99782.16;4950846;28;20051;-85
2023/09/16 02:50:50;;;;;;;4.15;3.53;;;;;;;19.51;64.29;99782.97;4941411;28;20035;-84
2023/09/16 02:53:17;;;;;;;3.90;3.60;;;;;;;19.48;64.61;99780.69;4939556;28;20071;-84
2023/09/16 02:55:44;;;;;;;4.57;3.38;;;;;;;19.47;64.64;99784.41;4930531;28;20050;-85
2023/09/16 02:58:11;;;;;;;5.40;3.95;;;;;;;19.47;64.54;99785.25;4960890;28;20058;-85
2023/09/16 03:00:38;;;;;;;4.65;3.30;;;;;;;19.41;64.75;99783.34;4933994;28;20051;-85
2023/09/16 03:03:05;;;;;;;8.07;3.58;;;;;;;19.42;64.50;99786.84;4927649;28;20055;-85
2023/09/16 03:05:32;;;;;;;3.80;3.50;;;;;;;19.43;64.68;99789.34;4932752;28;20054;-85
2023/09/16 03:07:59;;;;;;;5.57;3.80;;;;;;;19.41;64.84;99793.25;4960622;28;20499;-85
2023/09/16 03:10:26;;;;;;;5.15;3.40;;;;;;;19.38;64.92;99796.34;4974339;28;20479;-85
2023/09/16 03:12:52;;;;;;;4.50;4.00;;;;;;;19.34;65.05;99789.69;4957425;28;20470;-85
2023/09/16 03:15:19;;;;;;;3.85;3.08;;;;;;;19.32;65.17;99789.06;4955885;28;20050;-85
2023/09/16 03:17:47;;;;;;;3.55;3.25;;;;;;;19.30;64.96;99792.75;4964338;28;20050;-85
2023/09/16 03:20:28;;;;;;;4.15;3.33;;;;;;;19.30;65.31;99791.94;4945468;28;20496;-85
2023/09/16 03:22:56;;;;;;;7.57;3.80;;;;;;;19.24;65.29;99792.72;4961703;28;20065;-85
2023/09/16 03:25:23;;;;;;;4.18;3.60;;;;;;;19.23;66.31;99791.88;4939414;28;20379;-85
2023/09/16 03:27:51;;;;;;;4.25;3.75;;;;;;;19.21;66.44;99787.69;4958607;28;20053;-85
2023/09/16 03:30:18;;;;;;;4.45;3.70;;;;;;;19.18;66.37;99788.91;4962838;28;20054;-85
2023/09/16 03:32:46;;;;;;;6.80;3.60;;;;;;;19.21;66.50;99791.25;4941707;28;20114;-85
2023/09/16 03:35:14;;;;;;;7.05;4.20;;;;;;;19.19;66.50;99792.47;4968159;28;20399;-84
2023/09/16 03:37:41;;;;;;;4.13;3.72;;;;;;;19.15;66.65;99786.59;4965125;28;20098;-85
2023/09/16 03:40:08;;;;;;;4.97;3.95;;;;;;;19.12;66.38;99784.31;4955069;28;20045;-85
2023/09/16 03:42:35;;;;;;;3.80;3.50;;;;;;;19.10;66.16;99775.59;4928036;28;20134;-85
2023/09/16 03:45:02;;;;;;;3.92;3.25;;;;;;;19.11;66.21;99777.28;4957611;28;20102;-85
2023/09/16 03:47:41;;;;;;;5.65;3.85;;;;;;;19.07;66.01;99776.81;4939560;28;20513;-85
2023/09/16 03:50:08;;;;;;;5.22;3.60;;;;;;;19.03;66.64;99769.31;4957016;28;20039;-85
2023/09/16 03:52:36;;;;;;;4.07;3.40;;;;;;;19.05;66.51;99778.03;4951622;28;20050;-85
2023/09/16 03:55:04;;;;;;;3.70;3.40;;;;;;;19.03;66.37;99775.53;4933855;28;20367;-85
2023/09/16 03:57:31;;;;;;;4.38;3.42;;;;;;;18.99;66.46;99768.03;4961739;28;20135;-85
2023/09/16 03:59:58;;;;;;;5.43;3.70;;;;;;;18.98;66.28;99760.97;4926651;28;20051;-85
2023/09/16 04:02:24;;;;;;;4.20;3.50;;;;;;;18.97;66.55;99768.22;4959179;28;20126;-85
2023/09/16 04:04:53;;;;;;;6.07;3.83;;;;;;;18.97;66.40;99762.84;4933023;28;20055;-85
2023/09/16 04:07:21;;;;;;;4.95;3.88;;;;;;;18.97;66.99;99760.16;4957685;28;20047;-84
2023/09/16 04:09:49;;;;;;;5.95;3.78;;;;;;;19.00;66.35;99759.75;4973881;28;20046;-84
2023/09/16 04:12:17;;;;;;;4.45;3.50;;;;;;;19.01;65.88;99764.13;4941493;28;20130;-84
2023/09/16 04:14:44;;;;;;;5.38;3.80;;;;;;;18.97;66.30;99764.69;4946855;28;20043;-85
2023/09/16 04:17:12;;;;;;;5.13;3.50;;;;;;;19.01;65.97;99760.63;4949895;28;20041;-85
2023/09/16 04:19:40;;;;;;;6.72;3.60;;;;;;;18.99;65.98;99766.16;4946722;28;20055;-85
2023/09/16 04:22:06;;;;;;;7.40;3.85;;;;;;;19.02;65.78;99749.63;4969613;28;20086;-84
2023/09/16 04:24:33;;;;;;;4.32;3.78;;;;;;;19.01;65.59;99750.69;4923345;28;20447;-85
2023/09/16 04:27:00;;;;;;;6.70;4.15;;;;;;;19.04;65.76;99760.22;4930370;28;20051;-85
2023/09/16 04:29:27;;;;;;;4.32;3.70;;;;;;;19.04;65.31;99744.06;4950808;28;20077;-85
2023/09/16 04:31:54;;;;;;;5.78;3.35;;;;;;;19.02;65.30;99746.13;4957397;28;20043;-85
2023/09/16 04:34:21;;;;;;;3.90;3.50;;;;;;;18.99;65.39;99749.19;4946897;28;20039;-85
2023/09/16 04:36:48;;;;;;;5.20;3.58;;;;;;;18.99;65.30;99747.34;4916809;28;20053;-85
2023/09/16 04:39:23;;;;;;;4.88;4.38;;;;;;;19.01;65.22;99757.91;4971292;28;20043;-85
2023/09/16 04:41:59;;;;;;;4.90;3.63;;;;;;;18.96;65.35;99753.09;4959769;28;20046;-85
2023/09/16 04:44:26;;;;;;;4.32;3.92;;;;;;;18.94;65.47;99749.78;4945810;28;20057;-85
2023/09/16 04:46:53;;;;;;;4.68;3.58;;;;;;;18.91;65.69;99755.53;4941363;28;20383;-84
2023/09/16 04:49:23;;;;;;;4.53;3.95;;;;;;;18.90;65.81;99758.41;4921893;28;20054;-85
2023/09/16 04:51:50;;;;;;;5.95;3.75;;;;;;;18.93;65.70;99749.94;4928506;28;20047;-85
2023/09/16 04:54:21;;;;;;;5.03;3.42;;;;;;;18.85;65.79;99741.00;4965336;28;20314;-85
2023/09/16 04:56:48;;;;;;;4.35;3.90;;;;;;;18.88;65.83;99750.56;4929233;28;20038;-85
2023/09/16 04:59:14;;;;;;;7.22;3.92;;;;;;;18.84;65.96;99749.25;4954747;28;20505;-85
2023/09/16 05:01:44;;;;;;;5.40;3.50;;;;;;;18.82;65.89;99744.06;4956528;28;20065;-85
2023/09/16 05:04:12;;;;;;;5.00;3.47;;;;;;;18.82;65.63;99744.06;4927761;28;20049;-85
2023/09/16 05:06:40;;;;;;;4.78;3.35;;;;;;;18.83;65.96;99743.06;4964530;28;20050;-86
2023/09/16 05:09:06;;;;;;;5.30;3.33;;;;;;;18.83;65.90;99742.22;4943247;28;20114;-85
2023/09/16 05:11:33;;;;;;;3.90;3.42;;;;;;;18.83;66.03;99742.22;4954447;28;20510;-86
2023/09/16 05:14:01;;;;;;;6.43;3.88;;;;;;;18.80;66.04;99734.50;4912648;28;20055;-86
2023/09/16 05:16:28;;;;;;;6.68;3.90;;;;;;;18.80;66.20;99738.06;4933841;28;20047;-85
2023/09/16 05:19:00;;;;;;;4.82;3.83;;;;;;;18.78;66.06;99732.03;4915543;28;20475;-86
2023/09/16 05:21:28;;;;;;;6.63;4.30;;;;;;;18.81;66.24;99736.19;4945832;28;20053;-86
2023/09/16 05:23:55;;;;;;;5.70;3.58;;;;;;;18.79;66.20;99731.00;4928075;28;20150;-85
2023/09/16 05:26:24;;;;;;;4.80;3.63;;;;;;;18.81;66.42;99731.66;4898842;28;20058;-86
2023/09/16 05:28:51;;;;;;;5.88;4.05;;;;;;;18.79;66.48;99728.31;4933137;28;20499;-86
2023/09/16 05:31:18;;;;;;;4.38;3.63;;;;;;;18.79;66.07;99731.00;4946361;28;20430;-85
2023/09/16 05:33:48;;;;;;;5.88;4.00;;;;;;;18.80;66.01;99727.28;4935855;28;20133;-85
2023/09/16 05:36:15;;;;;;;5.13;4.30;;;;;;;18.77;65.70;99734.91;4949389;28;20050;-85
2023/09/16 05:38:42;;;;;;;5.93;4.20;;;;;;;18.75;65.84;99729.72;4941588;28;20051;-85
2023/09/16 05:41:10;;;;;;;5.13;3.97;;;;;;;18.79;65.71;99728.31;4932235;28;20050;-86
2023/09/16 05:43:36;;;;;;;5.13;3.85;;;;;;;18.80;65.93;99731.81;4912580;28;20509;-85
2023/09/16 05:46:05;;;;;;;5.60;4.68;;;;;;;18.83;66.20;99731.47;4941296;28;20050;-85
2023/09/16 05:48:33;;;;;;;5.95;4.38;;;;;;;18.83;66.09;99729.59;4926871;28;20486;-86
2023/09/16 05:51:02;;;;;;;7.40;4.55;;;;;;;18.87;65.91;99733.56;4946180;28;20071;-85
2023/09/16 05:53:31;;;;;;;6.47;4.32;;;;;;;18.87;65.75;99738.94;4961933;28;20047;-85
2023/09/16 05:56:04;;;;;;;4.45;3.63;;;;;;;18.82;65.73;99730.59;4916774;28;20098;-85
2023/09/16 05:58:33;;;;;;;5.88;4.47;;;;;;;18.88;65.85;99737.09;4942780;28;20482;-85
2023/09/16 06:01:00;;;;;;;5.53;4.28;;;;;;;18.86;65.91;99731.91;4946882;28;20090;-86
2023/09/16 06:03:28;;;;;;;7.72;4.53;;;;;;;18.89;65.85;99738.75;4928605;28;20122;-85
2023/09/16 06:05:59;;;;;;;5.88;4.32;;;;;;;18.91;65.98;99741.25;4960099;28;20063;-86
2023/09/16 06:08:26;;;;;;;5.32;3.95;;;;;;;18.95;65.67;99737.16;4952020;28;20479;-84
2023/09/16 06:10:55;;;;;;;6.68;4.80;;;;;;;18.95;65.78;99742.53;4913569;28;20047;-84
2023/09/16 06:13:23;;;;;;;7.03;4.30;;;;;;;18.94;65.71;99736.31;4939218;28;20079;-84
2023/09/16 06:15:52;;;;;;;5.47;4.38;;;;;;;18.92;65.73;99724.91;4955536;28;20069;-85
2023/09/16 06:18:19;;;;;;;6.45;4.60;;;;;;;18.95;65.85;99737.16;4934017;28;20126;-84
2023/09/16 06:20:46;;;;;;;5.47;4.75;;;;;;;18.95;66.07;99731.75;4920393;28;20046;-84
2023/09/16 06:23:14;;;;;;;7.72;4.65;;;;;;;18.97;65.66;99737.78;4913793;28;20566;-84
2023/09/16 06:25:40;;;;;;;7.65;4.90;;;;;;;18.98;66.06;99743.00;4954937;28;20042;-84
2023/09/16 06:28:08;;;;;;;6.53;4.70;;;;;;;18.97;65.77;99743.16;4933589;28;20051;-84
2023/09/16 06:30:35;;;;;;;7.82;4.88;;;;;;;19.03;66.15;99745.94;4934182;28;20050;-84
2023/09/16 06:33:03;;;;;;;7.93;4.70;;;;;;;19.06;66.20;99747.41;4931410;28;20125;-84
2023/09/16 06:35:29;;;;;;;6.30;4.88;;;;;;;19.08;66.11;99750.72;4932585;28;20055;-86
2023/09/16 06:37:57;;;;;;;7.40;4.70;;;;;;;19.11;66.29;99744.13;4944175;28;20510;-84
2023/09/16 06:40:25;;;;;;;8.30;4.90;;;;;;;19.14;66.38;99747.28;4935952;28;20099;-84
2023/09/16 06:42:51;;;;;;;6.32;4.50;;;;;;;19.15;66.33;99731.94;4944219;28;20067;-85
2023/09/16 06:45:18;;;;;;;7.70;4.90;;;;;;;19.20;66.23;99741.09;4927623;28;20081;-85
2023/09/16 06:47:48;;;;;;;6.68;4.80;;;;;;;19.19;66.39;99742.13;4928750;28;20049;-84
2023/09/16 06:50:14;;;;;;;7.72;5.05;;;;;;;19.22;66.59;99740.91;4947929;28;20079;-84
2023/09/16 06:52:41;;;;;;;6.55;4.90;;;;;;;19.25;66.57;99746.72;4950560;28;20046;-85
2023/09/16 06:55:08;;;;;;;6.18;4.65;;;;;;;19.26;66.45;99737.66;4949630;28;20046;-84
2023/09/16 06:57:35;;;;;;;8.27;5.15;;;;;;;19.27;66.36;99744.69;4935687;28;20055;-85
2023/09/16 07:00:02;;;;;;;5.78;4.95;;;;;;;19.28;66.43;99748.19;4932208;28;20043;-85
2023/09/16 07:02:29;;;;;;;5.15;4.28;;;;;;;19.32;66.19;99749.50;4947524;28;20053;-85
2023/09/16 07:04:56;;;;;;;5.10;4.25;;;;;;;19.33;66.39;99750.31;4956802;28;20504;-85
2023/09/16 07:07:24;;;;;;;7.10;5.63;;;;;;;19.34;66.13;99754.69;4929808;28;20048;-85
2023/09/16 07:09:57;;;;;;;6.32;5.10;;;;;;;19.33;66.41;99751.16;4924805;28;20049;-85
2023/09/16 07:12:24;;;;;;;7.05;4.68;;;;;;;19.33;66.48;99753.84;4930693;28;20406;-85
2023/09/16 07:14:51;;;;;;;7.95;5.18;;;;;;;19.38;66.53;99753.25;4931390;28;20047;-85
2023/09/16 07:17:18;;;;;;;6.38;4.68;;;;;;;19.42;66.75;99757.25;4954635;28;20491;-85
2023/09/16 07:19:44;;;;;;;7.30;4.70;;;;;;;19.41;66.67;99755.56;4916432;28;20413;-85
2023/09/16 07:22:11;;;;;;;7.35;5.45;;;;;;;19.45;66.86;99748.75;4947973;28;20046;-85
2023/09/16 07:24:39;;;;;;;6.38;5.03;;;;;;;19.45;66.79;99746.06;4954940;28;20066;-84
2023/09/16 07:27:06;;;;;;;6.80;5.78;;;;;;;19.49;66.94;99750.06;4932853;28;20054;-84
2023/09/16 07:29:33;;;;;;;8.23;5.50;;;;;;;19.49;66.98;99742.78;4950361;28;20039;-84
2023/09/16 07:31:59;;;;;;;6.93;5.60;;;;;;;19.53;67.24;99745.91;4949653;28;20434;-83
2023/09/16 07:34:26;;;;;;;7.32;5.28;;;;;;;19.58;67.34;99753.41;4930546;28;20047;-85
2023/09/16 07:36:53;;;;;;;6.60;5.05;;;;;;;19.56;67.37;99740.13;4941721;28;20050;-85
2023/09/16 07:39:20;;;;;;;7.10;4.88;;;;;;;19.59;67.68;99742.47;4943927;28;20411;-83
2023/09/16 07:41:47;;;;;;;7.13;4.57;;;;;;;19.60;67.74;99749.50;4940475;28;20130;-85
2023/09/16 07:44:13;;;;;;;5.88;4.68;;;;;;;19.63;67.71;99745.56;4944156;28;20043;-85
2023/09/16 07:46:40;;;;;;;7.35;5.60;;;;;;;19.66;68.12;99751.38;4949064;28;20178;-86
2023/09/16 07:49:07;;;;;;;8.68;5.80;;;;;;;19.70;68.27;99736.53;4947118;28;20047;-85
2023/09/16 07:51:34;;;;;;;6.47;5.22;;;;;;;19.74;68.32;99745.03;4947644;28;20386;-85
2023/09/16 07:54:01;;;;;;;5.80;5.20;;;;;;;19.79;68.34;99749.84;4932200;28;20050;-86
2023/09/16 07:56:28;;;;;;;7.30;5.28;;;;;;;19.82;68.34;99749.44;4949707;28;20116;-86
2023/09/16 07:58:55;;;;;;;6.10;4.90;;;;;;;19.84;68.23;99759.00;4940193;28;20043;-84
2023/09/16 08:01:22;;;;;;;7.85;5.18;;;;;;;19.87;68.26;99757.78;4950263;28;20121;-85
2023/09/16 08:03:48;;;;;;;6.55;4.80;;;;;;;19.87;68.45;99757.78;4928779;28;20054;-85
2023/09/16 08:06:16;;;;;;;7.80;5.80;;;;;;;19.90;68.48;99752.84;4945190;28;20062;-83
2023/09/16 08:08:42;;;;;;;7.35;5.32;;;;;;;19.91;68.31;99749.09;4948498;28;20043;-84
2023/09/16 08:11:09;;;;;;;7.35;5.45;;;;;;;19.94;68.45;99753.25;4960586;28;20130;-84
2023/09/16 08:13:36;;;;;;;5.88;5.10;;;;;;;19.99;68.24;99749.97;4935833;28;20051;-84
2023/09/16 08:16:02;;;;;;;7.90;5.03;;;;;;;20.01;68.70;99759.53;4954389;28;20468;-85
2023/09/16 08:18:29;;;;;;;8.52;5.90;;;;;;;20.07;68.69;99760.59;4952357;28;20125;-85
2023/09/16 08:20:56;;;;;;;8.02;6.10;;;;;;;20.10;68.65;99762.91;4972763;28;20053;-84
2023/09/16 08:23:23;;;;;;;9.00;5.50;;;;;;;20.12;68.63;99766.22;4929521;28;20039;-85
2023/09/16 08:25:49;;;;;;;8.18;5.13;;;;;;;20.14;68.88;99762.28;4952751;28;20562;-84
2023/09/16 08:28:16;;;;;;;7.75;5.80;;;;;;;20.16;69.02;99771.00;4961259;28;20057;-84
2023/09/16 08:30:43;;;;;;;6.90;5.18;;;;;;;20.21;68.83;99764.19;4945287;28;20056;-86
2023/09/16 08:33:10;;;;;;;6.82;5.60;;;;;;;20.24;69.78;99771.88;4945336;28;20508;-83
2023/09/16 08:35:36;;;;;;;8.88;5.72;;;;;;;20.28;69.33;99768.59;4951883;28;20042;-84
2023/09/16 08:38:03;;;;;;;7.10;5.60;;;;;;;20.31;69.31;99764.66;4913308;28;20121;-86
2023/09/16 08:40:32;;;;;;;7.50;5.80;;;;;;;20.32;69.29;99767.13;4943462;28;20093;-87
2023/09/16 08:43:16;;;;;;;10.52;5.60;;;;;;;20.33;69.82;99770.69;4945338;28;20459;-86
2023/09/16 08:45:45;;;;;;;7.78;6.03;;;;;;;20.41;69.52;99766.97;4953442;28;20046;-84
2023/09/16 08:48:20;;;;;;;7.18;5.47;;;;;;;20.43;69.99;99775.69;4958765;28;20480;-84
2023/09/16 08:50:50;;;;;;;7.93;6.65;;;;;;;20.48;69.89;99775.91;4968716;28;20134;-84
2023/09/16 08:53:19;;;;;;;8.88;5.57;;;;;;;20.52;69.82;99778.00;4952748;28;20070;-83
2023/09/16 08:55:45;;;;;;;10.55;6.80;;;;;;;20.55;69.96;99774.09;4930995;28;20043;-86
2023/09/16 08:58:14;;;;;;;6.60;5.50;;;;;;;20.57;69.86;99774.75;4927015;28;20134;-84
2023/09/16 09:00:41;;;;;;;7.05;6.18;;;;;;;20.60;69.87;99774.31;4959795;28;20065;-87
2023/09/16 09:03:08;;;;;;;6.90;6.07;;;;;;;20.63;70.25;99779.31;4942653;28;20102;-84
2023/09/16 09:05:36;;;;;;;8.57;5.45;;;;;;;20.66;70.07;99776.22;4969054;28;20046;-83
2023/09/16 09:08:10;;;;;;;8.10;6.40;;;;;;;20.68;70.25;99771.44;4940126;28;20507;-84
2023/09/16 09:10:38;;;;;;;8.85;6.55;;;;;;;20.70;70.29;99769.38;4940799;28;20132;-83
2023/09/16 09:13:06;;;;;;;7.80;6.35;;;;;;;20.72;70.37;99766.50;4942305;28;20065;-84
2023/09/16 09:15:34;;;;;;;10.43;6.60;;;;;;;20.76;70.59;99759.63;4953083;28;20047;-84
2023/09/16 09:18:00;;;;;;;6.78;5.70;;;;;;;20.77;70.89;99762.13;4935233;28;20045;-85
2023/09/16 09:20:28;;;;;;;7.70;5.75;;;;;;;20.80;70.94;99756.31;4955842;28;20388;-84
2023/09/16 09:22:56;;;;;;;6.10;5.30;;;;;;;20.86;70.61;99760.06;4940748;28;20043;-84
2023/09/16 09:25:27;;;;;;;7.47;5.72;;;;;;;20.89;70.56;99765.09;4955335;28;20062;-84
2023/09/16 09:27:56;;;;;;;10.07;6.18;;;;;;;20.95;70.95;99768.81;4925388;28;20047;-85
2023/09/16 09:30:29;;;;;;;7.30;6.00;;;;;;;20.96;71.06;99762.38;4965732;28;20478;-84
2023/09/16 09:32:57;;;;;;;13.43;6.03;;;;;;;20.98;71.20;99766.53;4948810;28;20462;-84
2023/09/16 09:35:28;;;;;;;7.30;6.07;;;;;;;21.02;71.24;99766.97;4968891;28;20043;-84
2023/09/16 09:37:56;;;;;;;7.20;5.82;;;;;;;21.01;71.22;99758.06;4937191;28;20153;-84
2023/09/16 09:40:23;;;;;;;10.15;6.47;;;;;;;21.06;71.50;99764.69;4932254;28;20039;-83
2023/09/16 09:42:52;;;;;;;7.03;5.63;;;;;;;21.07;71.80;99761.78;4931521;28;20128;-84
2023/09/16 09:45:20;;;;;;;7.95;6.53;;;;;;;21.10;71.64;99757.84;4957439;28;20040;-85
2023/09/16 09:47:49;;;;;;;7.80;6.35;;;;;;;21.13;70.97;99755.56;4933348;28;20056;-83
2023/09/16 09:50:17;;;;;;;7.43;5.97;;;;;;;21.15;70.95;99739.97;4931813;28;20047;-84
2023/09/16 09:52:54;;;;;;;8.82;5.97;;;;;;;21.12;71.40;99739.56;4932011;28;20058;-83
2023/09/16 09:55:23;;;;;;;8.23;5.97;;;;;;;21.20;71.72;99747.47;4943203;28;20050;-84
2023/09/16 09:57:51;;;;;;;9.63;6.90;;;;;;;21.24;71.33;99743.28;4939266;28;20050;-84
2023/09/16 10:00:21;;;;;;;9.43;5.93;;;;;;;21.25;71.52;99737.69;4959751;28;20406;-84
2023/09/16 10:02:48;;;;;;;6.82;5.47;;;;;;;21.28;71.16;99738.31;4933882;28;20042;-84
2023/09/16 10:05:17;;;;;;;12.73;6.53;;;;;;;21.30;71.02;99734.38;4948210;28;20097;-84
2023/09/16 10:07:44;;;;;;;8.02;6.22;;;;;;;21.34;71.21;99734.78;4914219;28;20065;-84
2023/09/16 10:10:18;;;;;;;7.88;6.30;;;;;;;21.34;71.25;99734.78;4932627;28;20054;-84
2023/09/16 10:12:46;;;;;;;7.82;6.93;;;;;;;21.37;71.51;99732.50;4944431;28;20046;-84
2023/09/16 10:15:13;;;;;;;7.68;6.05;;;;;;;21.40;71.53;99728.59;4918920;28;20101;-85
2023/09/16 10:17:41;;;;;;;7.30;6.18;;;;;;;21.44;72.11;99732.53;4929031;28;20061;-84
2023/09/16 10:20:10;;;;;;;7.00;6.28;;;;;;;21.49;71.72;99730.03;4949717;28;20058;-85
2023/09/16 10:22:40;;;;;;;6.32;5.70;;;;;;;21.51;71.55;99730.66;4972044;28;20043;-85
2023/09/16 10:25:08;;;;;;;7.15;5.97;;;;;;;21.54;71.46;99730.22;4928609;28;20069;-84
2023/09/16 10:27:54;;;;;;;8.38;7.20;;;;;;;21.51;71.84;99722.53;4968858;28;20125;-84
2023/09/16 10:30:22;;;;;;;6.88;5.78;;;;;;;21.60;71.66;99728.53;4949862;28;20483;-84
2023/09/16 10:32:49;;;;;;;7.15;5.47;;;;;;;21.61;71.63;99724.81;4949729;28;20129;-85
2023/09/16 10:35:16;;;;;;;7.07;6.38;;;;;;;21.63;71.99;99720.88;4959366;28;20122;-84
2023/09/16 10:37:44;;;;;;;7.28;6.18;;;;;;;21.67;71.72;99716.69;4955889;28;20039;-84
2023/09/16 10:40:10;;;;;;;6.07;5.28;;;;;;;21.70;71.56;99723.53;4940289;28;20074;-85
2023/09/16 10:42:38;;;;;;;7.45;6.20;;;;;;;21.72;71.59;99721.47;4951415;28;20144;-85
2023/09/16 10:45:10;;;;;;;8.00;5.90;;;;;;;21.74;71.72;99727.50;4949188;28;20106;-84
2023/09/16 10:47:37;;;;;;;6.88;6.15;;;;;;;21.74;72.12;99716.69;4933538;28;20057;-85
2023/09/16 10:50:04;;;;;;;6.93;6.07;;;;;;;21.78;72.04;99711.66;4941635;28;20050;-84
2023/09/16 10:52:45;;;;;;;7.53;6.20;;;;;;;21.76;71.63;99711.06;4948245;28;20039;-84
2023/09/16 10:55:20;;;;;;;6.80;6.10;;;;;;;21.83;71.02;99707.31;4955246;28;20051;-84
2023/09/16 10:57:54;;;;;;;6.18;5.53;;;;;;;21.84;71.12;99708.97;4956817;28;20067;-84
2023/09/16 11:00:21;;;;;;;6.70;6.00;;;;;;;21.91;71.08;99703.53;4951690;28;20053;-85
2023/09/16 11:02:58;;;;;;;7.18;5.97;;;;;;;21.94;71.11;99710.41;4930943;28;20695;-84
2023/09/16 11:05:26;;;;;;;7.47;6.10;;;;;;;22.00;70.82;99701.44;4943144;28;20472;-85
2023/09/16 11:07:54;;;;;;;6.85;6.15;;;;;;;22.01;70.83;99705.81;4947746;28;20869;-85
2023/09/16 11:10:22;;;;;;;6.72;5.68;;;;;;;22.04;70.97;99708.06;4947962;28;20053;-85
2023/09/16 11:12:49;;;;;;;7.22;5.25;;;;;;;22.05;70.70;99704.31;4929566;28;20054;-84
2023/09/16 11:15:17;;;;;;;5.75;5.15;;;;;;;22.07;70.35;99696.84;4932372;28;20054;-84
2023/09/16 11:17:43;;;;;;;6.47;5.45;;;;;;;22.11;70.03;99693.50;4931443;28;20051;-84
2023/09/16 11:20:21;;;;;;;7.68;5.18;;;;;;;22.08;69.90;99688.50;4928118;28;20102;-84
2023/09/16 11:22:48;;;;;;;7.60;5.05;;;;;;;22.16;70.07;99687.44;4968271;28;20049;-85
2023/09/16 11:25:16;;;;;;;4.97;4.45;;;;;;;22.18;69.88;99685.31;4956501;28;20487;-84
2023/09/16 11:27:46;;;;;;;4.80;4.30;;;;;;;22.19;69.83;99686.19;4931912;28;20047;-84
2023/09/16 11:30:14;;;;;;;5.07;4.57;;;;;;;22.23;69.58;99684.72;4929447;28;20118;-84
2023/09/16 11:32:55;;;;;;;6.15;4.53;;;;;;;22.22;69.29;99683.91;4944466;28;20969;-83
2023/09/16 11:35:23;;;;;;;6.00;5.43;;;;;;;22.28;69.22;99683.03;4943226;28;20438;-84
2023/09/16 11:37:49;;;;;;;5.05;4.55;;;;;;;22.31;69.14;99679.06;4939805;28;20142;-85
2023/09/16 11:40:16;;;;;;;6.50;4.93;;;;;;;22.36;69.15;99676.53;4944134;28;20094;-84